Time;durP1;ratioP1;P1;durP2;ratioP2;P2;SDS_P1;SDS_P2;PMS_P1;PMS_P2;Temp;Humidity;BMP_temperature;BMP_pressure;BME280_temperature;BME280_humidity;BME280_pressure;Samples;Min_cycle;Max_cycle;Signal;HPM_P1;HPM_P2
2022/01/18 00:01:52;;;;;;;37.85;6.05;;;7.60;99.90;;;;;;5006271;28;20052;-74
2022/01/18 00:04:19;;;;;;;31.05;5.13;;;7.60;99.90;;;;;;5006675;28;20050;-74
2022/01/18 00:06:48;;;;;;;35.22;6.15;;;7.60;99.90;;;;;;5010218;28;20054;-74
2022/01/18 00:09:18;;;;;;;36.88;6.53;;;7.70;99.90;;;;;;5009239;28;20046;-74
2022/01/18 00:11:48;;;;;;;36.35;7.53;;;7.70;99.90;;;;;;5007617;28;20048;-74
2022/01/18 00:14:39;;;;;;;40.72;6.78;;;7.70;99.90;;;;;;5007912;28;20050;-74
2022/01/18 00:17:16;;;;;;;43.55;7.20;;;7.70;99.90;;;;;;5010405;28;20417;-74
2022/01/18 00:19:55;;;;;;;41.30;7.10;;;7.70;99.90;;;;;;5004492;28;20041;-74
2022/01/18 00:22:21;;;;;;;43.35;7.68;;;7.70;99.90;;;;;;5009927;28;20054;-74
2022/01/18 00:24:47;;;;;;;42.70;7.00;;;7.70;99.90;;;;;;5006209;28;20045;-74
2022/01/18 00:27:15;;;;;;;40.50;7.90;;;7.70;99.90;;;;;;5007751;28;20041;-74
2022/01/18 00:30:02;;;;;;;38.58;7.07;;;7.70;99.90;;;;;;5008775;28;20057;-74
2022/01/18 00:32:46;;;;;;;37.05;6.75;;;7.70;99.90;;;;;;5010499;28;20121;-74
2022/01/18 00:35:11;;;;;;;50.28;7.43;;;7.70;99.90;;;;;;5011003;28;20046;-74
2022/01/18 00:37:40;;;;;;;39.70;6.60;;;7.70;99.90;;;;;;5009438;28;20385;-74
2022/01/18 00:40:06;;;;;;;47.78;7.30;;;7.70;99.90;;;;;;5009732;28;20060;-74
2022/01/18 00:42:33;;;;;;;42.88;7.40;;;7.70;99.90;;;;;;5010311;28;20516;-74
2022/01/18 00:44:58;;;;;;;42.95;8.43;;;7.70;99.90;;;;;;5007208;28;20140;-74
2022/01/18 00:47:24;;;;;;;43.28;7.22;;;7.70;99.90;;;;;;5009614;28;20506;-74
2022/01/18 00:49:58;;;;;;;47.53;8.38;;;7.70;99.90;;;;;;5009268;28;20045;-74
2022/01/18 00:52:25;;;;;;;44.10;7.85;;;7.70;99.90;;;;;;5010217;28;20049;-74
2022/01/18 00:54:51;;;;;;;41.75;8.27;;;7.70;99.90;;;;;;5006347;28;20042;-74
2022/01/18 00:57:17;;;;;;;51.65;7.65;;;7.70;99.90;;;;;;5009343;28;20057;-74
2022/01/18 00:59:44;;;;;;;49.97;8.85;;;7.70;99.90;;;;;;5006702;28;20627;-74
2022/01/18 01:02:09;;;;;;;41.47;7.18;;;7.70;99.90;;;;;;5008325;28;20390;-74
2022/01/18 01:04:40;;;;;;;45.95;7.50;;;7.70;99.90;;;;;;5007444;28;20056;-74
2022/01/18 01:07:06;;;;;;;44.58;8.02;;;7.70;99.90;;;;;;5010321;28;20092;-74
2022/01/18 01:09:33;;;;;;;43.53;7.65;;;7.70;99.90;;;;;;5020227;28;20446;-73
2022/01/18 01:11:59;;;;;;;37.70;7.65;;;7.70;99.90;;;;;;5017340;28;20082;-73
2022/01/18 01:14:27;;;;;;;51.72;7.82;;;7.70;99.90;;;;;;5007911;28;20042;-74
2022/01/18 01:43:30;;;;;;;35.83;6.68;;;7.70;99.90;;;;;;5009633;28;20054;-74
2022/01/18 01:45:57;;;;;;;41.95;7.30;;;7.70;99.90;;;;;;5007018;28;20050;-74
2022/01/18 01:48:25;;;;;;;36.72;7.07;;;7.70;99.90;;;;;;4998645;28;20042;-74
2022/01/18 01:50:55;;;;;;;44.83;7.55;;;7.70;99.90;;;;;;5007749;28;20053;-74
2022/01/18 01:53:23;;;;;;;36.92;6.65;;;7.70;99.90;;;;;;5008695;28;20050;-74
2022/01/18 01:55:51;;;;;;;37.72;6.07;;;7.70;99.90;;;;;;5003270;28;20042;-74
2022/01/18 01:58:20;;;;;;;43.85;7.43;;;7.70;99.90;;;;;;5007579;28;20050;-74
2022/01/18 02:00:54;;;;;;;45.17;8.13;;;7.70;99.90;;;;;;5005755;28;20107;-74
2022/01/18 02:03:20;;;;;;;42.08;7.47;;;7.70;99.90;;;;;;5008990;28;20060;-74
2022/01/18 02:05:45;;;;;;;39.13;6.88;;;7.70;99.90;;;;;;5012155;28;20044;-74
2022/01/18 02:08:15;;;;;;;42.00;7.70;;;7.70;99.90;;;;;;5008190;28;20046;-74
2022/01/18 02:10:42;;;;;;;38.97;6.75;;;7.60;99.90;;;;;;5007097;28;20049;-74
2022/01/18 02:13:11;;;;;;;41.13;7.30;;;7.60;99.90;;;;;;5011985;28;20400;-74
2022/01/18 02:15:40;;;;;;;39.53;7.20;;;7.60;99.90;;;;;;5006022;28;20034;-74
2022/01/18 02:21:46;;;;;;;36.70;6.40;;;7.60;99.90;;;;;;5007559;28;20129;-74
2022/01/18 02:23:54;;;;;;;32.55;6.57;;;7.60;99.90;;;;;;5007212;28;20089;-74
2022/01/18 02:26:20;;;;;;;34.70;5.85;;;7.50;99.90;;;;;;5007660;28;20080;-74
2022/01/18 02:28:45;;;;;;;36.28;6.47;;;7.50;99.90;;;;;;5005158;28;20045;-74
2022/01/18 02:31:11;;;;;;;34.75;6.78;;;7.50;99.90;;;;;;5006189;28;20068;-74
2022/01/18 02:33:37;;;;;;;38.28;7.10;;;7.50;99.90;;;;;;5006025;28;20485;-74
2022/01/18 02:36:07;;;;;;;39.47;6.63;;;7.50;99.90;;;;;;5006666;28;20143;-75
2022/01/18 02:38:33;;;;;;;33.05;6.47;;;7.50;99.90;;;;;;5004345;28;20046;-75
2022/01/18 02:40:59;;;;;;;39.75;7.45;;;7.50;99.90;;;;;;5004441;28;20049;-75
2022/01/18 02:46:10;;;;;;;35.45;6.68;;;7.40;99.90;;;;;;5001806;28;20045;-75
2022/01/18 02:48:36;;;;;;;36.03;7.03;;;7.40;99.90;;;;;;5006267;28;20404;-75
2022/01/18 02:51:03;;;;;;;37.88;7.32;;;7.40;99.90;;;;;;5006313;28;20528;-75
2022/01/18 02:53:28;;;;;;;37.40;7.18;;;7.40;99.90;;;;;;4995297;28;20046;-75
2022/01/18 02:55:57;;;;;;;41.05;7.22;;;7.40;99.90;;;;;;4998950;28;20052;-75
2022/01/18 02:58:27;;;;;;;36.67;7.10;;;7.40;99.90;;;;;;5003976;28;20045;-75
2022/01/18 03:03:37;;;;;;;35.67;8.38;;;7.30;99.90;;;;;;4996533;28;20729;-75
2022/01/18 03:06:04;;;;;;;32.95;7.45;;;7.30;99.90;;;;;;5004147;28;20117;-75
2022/01/18 03:08:31;;;;;;;36.83;7.82;;;7.30;99.90;;;;;;5007173;28;20041;-75
2022/01/18 03:10:57;;;;;;;35.38;7.28;;;7.30;99.90;;;;;;5007092;28;20034;-75
2022/01/18 03:13:23;;;;;;;35.25;6.97;;;7.20;99.90;;;;;;5008011;28;20127;-75
2022/01/18 03:15:49;;;;;;;37.42;7.63;;;7.20;99.90;;;;;;5004713;28;20517;-75
2022/01/18 03:18:15;;;;;;;36.22;8.32;;;7.20;99.90;;;;;;5006174;28;20073;-74
2022/01/18 03:20:40;;;;;;;31.92;7.65;;;7.20;99.90;;;;;;5006078;28;20390;-75
2022/01/18 03:23:11;;;;;;;41.38;8.45;;;7.20;99.90;;;;;;5004279;28;20409;-75
2022/01/18 03:25:52;;;;;;;43.00;9.63;;;7.20;99.90;;;;;;5004206;28;20497;-75
2022/01/18 03:28:18;;;;;;;43.53;8.30;;;7.20;99.90;;;;;;5010439;28;20125;-75
2022/01/18 03:30:53;;;;;;;37.38;8.52;;;7.20;99.90;;;;;;5004512;28;20056;-75
2022/01/18 03:33:22;;;;;;;38.80;8.98;;;7.10;99.90;;;;;;5008773;28;20064;-75
2022/01/18 03:35:50;;;;;;;52.13;10.00;;;7.10;99.90;;;;;;5003359;28;20104;-76
2022/01/18 03:38:17;;;;;;;45.85;11.88;;;7.10;99.90;;;;;;5011156;28;20128;-74
2022/01/18 03:40:43;;;;;;;43.15;10.52;;;7.10;99.90;;;;;;5006131;28;20382;-75
2022/01/18 03:43:12;;;;;;;50.88;11.15;;;7.00;99.90;;;;;;5008976;28;20104;-75
2022/01/18 03:45:42;;;;;;;44.42;12.48;;;7.00;99.90;;;;;;5008444;28;20049;-75
2022/01/18 03:48:13;;;;;;;37.38;10.40;;;7.00;99.90;;;;;;5010945;28;20136;-75
2022/01/18 03:50:39;;;;;;;45.47;11.00;;;7.00;99.90;;;;;;5010432;28;20084;-75
2022/01/18 03:53:05;;;;;;;48.30;10.52;;;7.00;99.90;;;;;;5009674;28;20401;-75
2022/01/18 03:55:30;;;;;;;39.53;10.80;;;7.00;99.90;;;;;;5008373;28;20042;-75
2022/01/18 03:57:56;;;;;;;40.38;9.77;;;7.00;99.90;;;;;;5006114;28;20544;-75
2022/01/18 04:00:26;;;;;;;48.65;10.95;;;7.00;99.90;;;;;;5010114;28;20049;-75
2022/01/18 04:02:53;;;;;;;45.67;11.18;;;7.00;99.90;;;;;;5008281;28;20085;-75
2022/01/18 04:05:20;;;;;;;42.22;10.20;;;6.90;99.90;;;;;;5010305;28;20100;-75
2022/01/18 04:07:46;;;;;;;43.23;10.80;;;6.90;99.90;;;;;;5009215;28;20099;-75
2022/01/18 04:10:13;;;;;;;51.75;10.82;;;6.90;99.90;;;;;;5007658;28;20084;-75
2022/01/18 04:12:39;;;;;;;44.53;11.23;;;6.90;99.90;;;;;;4999168;28;20042;-74
2022/01/18 04:15:10;;;;;;;44.35;11.18;;;7.00;99.90;;;;;;5008457;28;20052;-75
2022/01/18 04:28:28;;;;;;;39.25;10.52;;;7.00;99.90;;;;;;5010372;28;20070;-75
2022/01/18 04:30:53;;;;;;;42.08;9.77;;;7.00;99.90;;;;;;5006386;28;20042;-75
2022/01/18 04:33:19;;;;;;;49.80;10.57;;;7.00;99.90;;;;;;5009618;28;20432;-74
2022/01/18 04:35:45;;;;;;;40.50;9.73;;;7.00;99.90;;;;;;5013443;28;20046;-75
2022/01/18 04:38:11;;;;;;;33.38;8.43;;;7.00;99.90;;;;;;5009231;28;20107;-75
2022/01/18 04:40:40;;;;;;;31.85;8.82;;;7.00;99.90;;;;;;5009131;28;20449;-75
2022/01/18 04:43:14;;;;;;;34.40;9.35;;;7.00;99.90;;;;;;5015200;28;20477;-75
2022/01/18 04:48:42;;;;;;;39.97;8.23;;;7.00;99.90;;;;;;5004533;28;20054;-75
2022/01/18 04:51:10;;;;;;;37.05;9.32;;;7.00;99.90;;;;;;5010960;28;20072;-74
2022/01/18 04:53:39;;;;;;;35.13;8.95;;;6.80;99.90;;;;;;5012759;28;20046;-75
2022/01/18 04:56:09;;;;;;;42.85;10.13;;;6.90;99.90;;;;;;5007080;28;20042;-75
2022/01/18 04:58:35;;;;;;;35.83;8.98;;;6.90;99.90;;;;;;5009112;28;20314;-74
2022/01/18 05:01:03;;;;;;;45.28;9.70;;;6.90;99.90;;;;;;5008444;28;20400;-74
2022/01/18 05:03:29;;;;;;;;;;;6.90;99.90;;;;;;5014488;28;20125;-75
2022/01/18 05:05:57;;;;;;;33.60;9.35;;;6.90;99.90;;;;;;5007474;28;20008;-75
2022/01/18 05:08:24;;;;;;;42.13;8.73;;;6.90;99.90;;;;;;5008547;28;20038;-74
2022/01/18 05:10:54;;;;;;;32.35;8.40;;;6.90;99.90;;;;;;5007415;28;20540;-74
2022/01/18 05:21:34;;;;;;;32.22;7.72;;;6.90;99.90;;;;;;5003310;28;20056;-75
2022/01/18 05:24:01;;;;;;;28.50;7.20;;;7.00;99.90;;;;;;5010276;28;20072;-75
2022/01/18 05:26:28;;;;;;;32.30;7.13;;;6.90;99.90;;;;;;5002623;28;20467;-75
2022/01/18 05:28:55;;;;;;;31.60;7.68;;;7.00;99.90;;;;;;5008975;28;20129;-75
2022/01/18 05:31:21;;;;;;;34.13;7.70;;;7.00;99.90;;;;;;5006484;28;20398;-75
2022/01/18 05:33:47;;;;;;;32.70;7.13;;;7.00;99.90;;;;;;5007763;28;20042;-75
2022/01/18 05:36:14;;;;;;;33.80;7.38;;;7.00;99.90;;;;;;5005552;28;20508;-75
2022/01/18 05:38:40;;;;;;;29.15;8.35;;;7.00;99.90;;;;;;5007530;28;20034;-74
2022/01/18 05:41:09;;;;;;;28.77;8.48;;;7.00;99.90;;;;;;5006280;28;20046;-74
2022/01/18 05:43:34;;;;;;;31.80;8.18;;;7.00;99.90;;;;;;4999444;28;20061;-74
2022/01/18 05:46:01;;;;;;;30.42;7.55;;;7.00;99.90;;;;;;5002510;28;20041;-75
2022/01/18 05:48:26;;;;;;;36.50;7.38;;;7.00;99.90;;;;;;5005597;28;20819;-75
2022/01/18 05:50:59;;;;;;;29.33;7.03;;;7.00;99.90;;;;;;5006394;28;20090;-75
2022/01/18 05:53:28;;;;;;;28.52;6.13;;;7.00;99.90;;;;;;5006259;28;20497;-75
2022/01/18 05:55:54;;;;;;;23.80;6.43;;;7.00;99.90;;;;;;5005693;28;20084;-74
2022/01/18 05:58:20;;;;;;;26.75;5.80;;;6.90;99.90;;;;;;5006869;28;20104;-75
2022/01/18 06:00:52;;;;;;;29.85;5.95;;;6.90;99.90;;;;;;5005701;28;20049;-75
2022/01/18 06:03:26;;;;;;;24.13;5.60;;;6.90;99.90;;;;;;5008843;28;20425;-75
2022/01/18 06:08:36;;;;;;;25.08;6.20;;;6.90;99.90;;;;;;5008536;28;20121;-75
2022/01/18 06:11:02;;;;;;;24.35;5.95;;;6.90;99.90;;;;;;5007848;28;20553;-75
2022/01/18 06:13:28;;;;;;;31.13;6.35;;;6.90;99.90;;;;;;5008650;28;20042;-75
2022/01/18 06:15:54;;;;;;;26.33;5.80;;;6.90;99.90;;;;;;5004669;28;20046;-75
2022/01/18 06:18:20;;;;;;;29.13;7.03;;;6.90;99.90;;;;;;5009265;28;20116;-75
2022/01/18 06:20:46;;;;;;;22.73;6.20;;;6.80;99.90;;;;;;5005404;28;20065;-75
2022/01/18 06:23:13;;;;;;;22.90;7.30;;;6.80;99.90;;;;;;5008604;28;20037;-75
2022/01/18 06:25:39;;;;;;;26.77;7.60;;;6.80;99.90;;;;;;5005462;28;20061;-75
2022/01/18 06:28:05;;;;;;;24.45;7.75;;;6.90;99.90;;;;;;5007780;28;20064;-75
2022/01/18 06:30:31;;;;;;;22.80;7.10;;;6.90;99.90;;;;;;5004960;28;20042;-75
2022/01/18 06:32:57;;;;;;;30.52;7.57;;;6.90;99.90;;;;;;5002936;28;20433;-75
2022/01/18 06:35:22;;;;;;;30.30;8.02;;;6.80;99.90;;;;;;5008490;28;20052;-75
2022/01/18 06:37:48;;;;;;;24.15;7.97;;;6.80;99.90;;;;;;5007742;28;20050;-75
2022/01/18 06:40:14;;;;;;;28.73;8.15;;;6.80;99.90;;;;;;5005560;28;20061;-75
2022/01/18 06:42:39;;;;;;;30.48;7.85;;;6.80;99.90;;;;;;5008069;28;20497;-74
2022/01/18 06:45:06;;;;;;;29.52;8.50;;;6.80;99.90;;;;;;5008014;28;20084;-75
2022/01/18 06:47:32;;;;;;;28.90;7.95;;;6.90;99.90;;;;;;4996331;28;20091;-77
2022/01/18 06:49:57;;;;;;;28.05;8.32;;;6.90;99.90;;;;;;5005223;28;20477;-77
2022/01/18 06:52:23;;;;;;;25.38;7.32;;;6.90;99.90;;;;;;5002904;28;20057;-72
2022/01/18 06:54:48;;;;;;;23.67;8.23;;;6.90;99.90;;;;;;5006283;28;20057;-73
2022/01/18 06:57:14;;;;;;;25.30;7.57;;;6.90;99.90;;;;;;5004859;28;20104;-73
2022/01/18 06:59:40;;;;;;;20.50;7.13;;;6.90;99.90;;;;;;5005072;28;20092;-73
2022/01/18 07:02:06;;;;;;;22.70;7.13;;;6.90;99.90;;;;;;5004993;28;20409;-73
2022/01/18 07:04:31;;;;;;;25.90;7.78;;;6.90;99.90;;;;;;5004850;28;20436;-75
2022/01/18 07:06:57;;;;;;;27.20;6.30;;;6.90;99.90;;;;;;5005063;28;20037;-75
2022/01/18 07:09:23;;;;;;;24.42;5.88;;;6.80;99.90;;;;;;5009432;28;20057;-75
2022/01/18 07:11:54;;;;;;;21.70;5.30;;;6.80;99.90;;;;;;5006940;28;20052;-75
2022/01/18 07:14:20;;;;;;;17.00;5.13;;;6.90;99.90;;;;;;5011165;28;20054;-74
2022/01/18 07:16:46;;;;;;;18.42;4.90;;;6.90;99.90;;;;;;5010439;28;20056;-75
2022/01/18 07:19:12;;;;;;;18.83;5.15;;;6.90;99.90;;;;;;5008320;28;20046;-75
2022/01/18 07:21:38;;;;;;;27.33;6.32;;;6.90;99.90;;;;;;5008656;28;20057;-75
2022/01/18 07:24:06;;;;;;;20.08;5.47;;;6.90;99.90;;;;;;5011545;28;20124;-75
2022/01/18 07:26:32;;;;;;;23.52;5.68;;;6.90;99.90;;;;;;5007434;28;20054;-75
2022/01/18 07:28:58;;;;;;;22.40;5.40;;;6.90;99.90;;;;;;5007602;28;20517;-75
2022/01/18 07:31:24;;;;;;;18.42;4.95;;;6.90;99.90;;;;;;5007102;28;20763;-75
2022/01/18 07:33:50;;;;;;;19.75;4.95;;;6.90;99.90;;;;;;5008669;28;20045;-74
2022/01/18 07:36:16;;;;;;;20.20;4.82;;;6.90;99.90;;;;;;5008550;28;20050;-74
2022/01/18 07:38:41;;;;;;;18.70;5.10;;;6.90;99.90;;;;;;5010569;28;20079;-74
2022/01/18 07:41:07;;;;;;;24.70;5.75;;;6.80;99.90;;;;;;5002826;28;20806;-75
2022/01/18 07:43:34;;;;;;;16.02;5.07;;;6.80;99.90;;;;;;5009493;28;20515;-75
2022/01/18 07:46:00;;;;;;;23.58;5.90;;;6.80;99.90;;;;;;5005955;28;20053;-75
2022/01/18 07:48:26;;;;;;;20.48;6.13;;;6.80;99.90;;;;;;5009832;28;20415;-74
2022/01/18 07:50:53;;;;;;;19.20;5.35;;;6.80;99.90;;;;;;5014977;28;20049;-75
2022/01/18 07:53:19;;;;;;;16.33;4.60;;;6.80;99.90;;;;;;5008204;28;20049;-74
2022/01/18 07:55:47;;;;;;;21.67;4.47;;;6.80;99.90;;;;;;5007170;28;20073;-74
2022/01/18 07:58:13;;;;;;;17.42;4.35;;;6.80;99.90;;;;;;5011729;28;20050;-74
2022/01/18 08:00:39;;;;;;;18.42;4.50;;;6.80;99.90;;;;;;5005319;28;20042;-75
2022/01/18 08:03:05;;;;;;;17.15;5.05;;;6.80;99.90;;;;;;5007653;28;20604;-75
2022/01/18 08:05:30;;;;;;;16.73;5.40;;;6.80;99.90;;;;;;5008150;28;20042;-75
2022/01/18 08:07:56;;;;;;;16.60;5.32;;;6.80;99.90;;;;;;5006283;28;20943;-75
2022/01/18 08:10:23;;;;;;;18.30;5.43;;;6.80;99.90;;;;;;5005492;28;20085;-74
2022/01/18 08:12:49;;;;;;;16.48;5.25;;;6.80;99.90;;;;;;5008169;28;20045;-77
2022/01/18 08:15:18;;;;;;;19.17;5.28;;;6.80;99.90;;;;;;5005759;28;20553;-75
2022/01/18 08:17:47;;;;;;;16.38;5.18;;;6.80;99.90;;;;;;5009175;28;20061;-75
2022/01/18 08:20:14;;;;;;;21.08;5.63;;;6.80;99.90;;;;;;5014172;28;20115;-74
2022/01/18 08:22:41;;;;;;;19.43;5.57;;;6.80;99.90;;;;;;5005593;28;20046;-74
2022/01/18 08:25:07;;;;;;;22.88;5.95;;;6.80;99.90;;;;;;5005430;28;20050;-74
2022/01/18 08:27:32;;;;;;;24.40;5.85;;;6.80;99.90;;;;;;5008418;28;20044;-74
2022/01/18 08:29:58;;;;;;;21.52;5.63;;;6.80;99.90;;;;;;5009306;28;20123;-73
2022/01/18 08:32:24;;;;;;;21.17;5.97;;;6.90;99.90;;;;;;5010375;28;20057;-74
2022/01/18 08:34:49;;;;;;;19.13;5.90;;;6.90;99.90;;;;;;5009371;28;20053;-76
2022/01/18 08:37:15;;;;;;;21.48;6.18;;;6.90;99.90;;;;;;5011006;28;20042;-75
2022/01/18 08:39:41;;;;;;;25.42;7.55;;;6.90;99.90;;;;;;5009280;28;20033;-73
2022/01/18 08:42:08;;;;;;;21.42;6.82;;;6.90;99.90;;;;;;5011414;28;20481;-74
2022/01/18 08:44:35;;;;;;;19.83;7.28;;;6.90;99.90;;;;;;5009115;28;20130;-73
2022/01/18 08:47:00;;;;;;;24.20;7.23;;;6.90;99.90;;;;;;5009806;28;20056;-74
2022/01/18 08:49:26;;;;;;;27.88;7.68;;;6.90;99.90;;;;;;5010170;28;20647;-74
2022/01/18 08:51:51;;;;;;;22.35;7.50;;;6.90;99.90;;;;;;5009614;28;20049;-74
2022/01/18 08:54:17;;;;;;;24.33;8.38;;;6.90;99.90;;;;;;5012411;28;20434;-73
2022/01/18 08:56:43;;;;;;;23.77;7.45;;;6.90;99.90;;;;;;5013555;28;20045;-72
2022/01/18 08:59:08;;;;;;;21.90;6.90;;;6.90;99.90;;;;;;5009469;28;20071;-74
2022/01/18 09:01:34;;;;;;;23.08;6.60;;;6.90;99.90;;;;;;5008749;28;20050;-75
2022/01/18 09:04:01;;;;;;;19.35;6.65;;;6.90;99.90;;;;;;5010036;28;20041;-75
2022/01/18 09:06:29;;;;;;;21.55;6.78;;;6.90;99.90;;;;;;5010147;28;20042;-74
2022/01/18 09:08:57;;;;;;;16.92;6.13;;;7.00;99.90;;;;;;5008226;28;20045;-75
2022/01/18 09:11:25;;;;;;;20.00;5.82;;;7.00;99.90;;;;;;5010071;28;20046;-74
2022/01/18 09:13:52;;;;;;;19.98;7.05;;;7.00;99.90;;;;;;5006649;28;20560;-74
2022/01/18 09:16:21;;;;;;;24.83;6.67;;;7.00;99.90;;;;;;5010014;28;20492;-74
2022/01/18 09:18:47;;;;;;;18.60;6.93;;;7.00;99.90;;;;;;5007507;28;20049;-73
2022/01/18 09:21:13;;;;;;;19.55;6.65;;;7.00;99.90;;;;;;4994535;28;20048;-73
2022/01/18 09:23:39;;;;;;;18.17;6.55;;;7.10;99.90;;;;;;4990443;28;20096;-74
2022/01/18 09:26:06;;;;;;;22.27;7.50;;;7.10;99.90;;;;;;4984873;28;20529;-74
2022/01/18 09:28:31;;;;;;;15.95;6.30;;;7.10;99.90;;;;;;4970909;28;20089;-74
2022/01/18 09:30:57;;;;;;;21.90;7.40;;;7.10;99.90;;;;;;4988813;28;20038;-75
2022/01/18 09:33:23;;;;;;;23.88;7.93;;;7.10;99.90;;;;;;4990210;28;20424;-75
2022/01/18 09:35:49;;;;;;;22.33;7.85;;;7.20;99.90;;;;;;4989408;28;20125;-74
2022/01/18 09:38:14;;;;;;;19.10;7.43;;;7.20;99.90;;;;;;4968139;28;20111;-75
2022/01/18 09:40:42;;;;;;;24.15;8.32;;;7.20;99.90;;;;;;4988135;28;20050;-74
2022/01/18 09:43:11;;;;;;;22.08;8.32;;;7.20;99.90;;;;;;4988350;28;20074;-75
2022/01/18 09:45:39;;;;;;;24.27;8.63;;;7.20;99.90;;;;;;4989843;28;20049;-75
2022/01/18 09:48:05;;;;;;;20.70;8.40;;;7.20;99.90;;;;;;4989508;28;20035;-75
2022/01/18 09:50:35;;;;;;;24.65;8.45;;;7.20;99.90;;;;;;4989793;28;20057;-75
2022/01/18 09:53:01;;;;;;;25.38;9.80;;;7.20;99.90;;;;;;4988988;28;20042;-75
2022/01/18 09:55:31;;;;;;;24.40;10.43;;;7.20;99.90;;;;;;4990984;28;20042;-75
2022/01/18 09:57:58;;;;;;;29.60;12.05;;;7.20;99.90;;;;;;4989882;28;20485;-75
2022/01/18 10:00:26;;;;;;;23.02;11.77;;;7.20;99.90;;;;;;4989598;28;20113;-75
2022/01/18 10:02:52;;;;;;;33.63;12.68;;;7.20;99.90;;;;;;4989965;28;20543;-75
2022/01/18 10:05:30;;;;;;;28.08;12.32;;;7.20;99.90;;;;;;4972815;28;20046;-75
2022/01/18 10:08:02;;;;;;;31.23;12.77;;;7.20;99.90;;;;;;4988063;28;20050;-75
2022/01/18 10:10:40;;;;;;;28.60;12.63;;;7.20;99.90;;;;;;4990635;28;20039;-75
2022/01/18 10:13:07;;;;;;;28.33;11.52;;;7.20;99.90;;;;;;4990347;28;20054;-75
2022/01/18 10:15:34;;;;;;;29.27;11.13;;;7.20;99.90;;;;;;4988334;28;20129;-75
2022/01/18 10:18:08;;;;;;;28.92;11.65;;;7.20;99.90;;;;;;4972123;28;20046;-75
2022/01/18 10:20:52;;;;;;;25.65;10.63;;;7.30;99.90;;;;;;5005973;28;20424;-72
2022/01/18 10:23:23;;;;;;;21.63;10.13;;;7.30;99.90;;;;;;5006572;28;20519;-74
2022/01/18 10:25:49;;;;;;;27.10;10.23;;;7.30;99.90;;;;;;5007290;28;20460;-72
2022/01/18 10:28:33;;;;;;;26.07;9.73;;;7.30;99.90;;;;;;5008193;28;20061;-75
2022/01/18 10:31:01;;;;;;;24.65;10.10;;;7.40;99.90;;;;;;5007866;28;20461;-73
2022/01/18 10:33:30;;;;;;;22.23;10.05;;;7.40;99.90;;;;;;5007089;28;20129;-74
2022/01/18 10:36:14;;;;;;;22.85;10.43;;;7.40;99.90;;;;;;5006535;28;20057;-73
2022/01/18 10:38:42;;;;;;;23.25;11.07;;;7.40;99.90;;;;;;5008103;28;20082;-74
2022/01/18 10:41:27;;;;;;;21.98;10.15;;;7.40;99.90;;;;;;5008296;28;20046;-73
2022/01/18 10:44:10;;;;;;;23.33;10.10;;;7.40;99.90;;;;;;5009718;28;20045;-74
2022/01/18 10:46:39;;;;;;;29.23;11.00;;;7.40;99.90;;;;;;5005982;28;20496;-73
2022/01/18 10:49:07;;;;;;;27.02;11.13;;;7.40;99.90;;;;;;5005408;28;20046;-74
2022/01/18 10:51:34;;;;;;;;;;;7.40;99.90;;;;;;5008108;28;20477;-72
2022/01/18 10:54:03;;;;;;;21.73;10.32;;;7.40;99.90;;;;;;5008292;28;19921;-73
2022/01/18 10:56:41;;;;;;;24.98;10.27;;;7.40;99.90;;;;;;5007374;28;20057;-71
2022/01/18 10:59:19;;;;;;;21.33;10.82;;;7.40;99.90;;;;;;5005210;28;20042;-74
2022/01/18 11:01:44;;;;;;;21.38;10.48;;;7.50;99.90;;;;;;5007957;28;20054;-74
2022/01/18 11:04:14;;;;;;;18.00;9.73;;;7.50;99.90;;;;;;5006130;28;20041;-73
2022/01/18 11:06:56;;;;;;;19.52;9.45;;;7.50;99.90;;;;;;5004069;28;20481;-73
2022/01/18 11:09:21;;;;;;;19.38;8.90;;;7.60;99.90;;;;;;4993417;28;20576;-74
2022/01/18 11:11:48;;;;;;;15.57;8.27;;;7.60;99.90;;;;;;5005849;28;20188;-73
2022/01/18 11:14:17;;;;;;;17.73;9.13;;;7.60;99.90;;;;;;5007922;28;20604;-72
2022/01/18 11:16:44;;;;;;;19.67;9.05;;;7.60;99.90;;;;;;5007517;28;20476;-73
2022/01/18 11:21:55;;;;;;;17.45;7.72;;;7.60;99.90;;;;;;5006457;28;20188;-73
2022/01/18 11:24:21;;;;;;;15.07;8.25;;;7.60;99.90;;;;;;5023008;28;20492;-72
2022/01/18 11:26:48;;;;;;;15.68;7.85;;;7.60;99.90;;;;;;5006661;28;20041;-73
2022/01/18 11:29:17;;;;;;;14.02;7.55;;;7.60;99.90;;;;;;5008608;28;20418;-73
2022/01/18 11:31:50;;;;;;;15.27;7.40;;;7.60;99.90;;;;;;5006224;28;20883;-73
2022/01/18 11:34:32;;;;;;;16.83;7.88;;;7.70;99.90;;;;;;5007570;28;20530;-71
2022/01/18 11:37:08;;;;;;;14.38;7.85;;;7.60;99.90;;;;;;5020656;28;20117;-73
2022/01/18 11:39:34;;;;;;;14.48;7.35;;;7.70;99.90;;;;;;5006402;28;20408;-72
2022/01/18 11:42:08;;;;;;;17.13;8.38;;;7.60;99.90;;;;;;5006452;28;20049;-73
2022/01/18 11:44:34;;;;;;;14.05;8.13;;;7.70;99.90;;;;;;5008659;28;20037;-75
2022/01/18 11:47:01;;;;;;;19.40;8.32;;;7.70;99.90;;;;;;5006594;28;20073;-76
2022/01/18 11:49:29;;;;;;;21.95;9.00;;;7.70;99.90;;;;;;5006603;28;20136;-75
2022/01/18 11:52:03;;;;;;;16.98;8.50;;;7.70;99.90;;;;;;5006515;28;20038;-78
2022/01/18 11:56:59;;;;;;;22.00;10.23;;;7.70;99.90;;;;;;5010257;28;20101;-76
2022/01/18 11:59:34;;;;;;;22.98;11.25;;;7.70;99.90;;;;;;5009481;28;20122;-75
2022/01/18 12:02:03;;;;;;;24.83;10.52;;;7.80;99.90;;;;;;5002712;28;20620;-75
2022/01/18 12:04:41;;;;;;;24.90;10.68;;;7.80;99.90;;;;;;5004377;28;20041;-75
2022/01/18 12:07:08;;;;;;;21.38;9.93;;;7.80;99.90;;;;;;5009812;28;20566;-73
2022/01/18 12:09:47;;;;;;;16.30;8.00;;;7.80;99.90;;;;;;5011169;28;20489;-73
2022/01/18 12:12:41;;;;;;;16.17;7.53;;;7.80;99.90;;;;;;5011288;28;20050;-73
2022/01/18 12:15:16;;;;;;;14.80;7.28;;;7.80;99.90;;;;;;5010737;28;20046;-75
2022/01/18 12:17:50;;;;;;;14.25;6.88;;;7.80;99.90;;;;;;5008327;28;20049;-75
2022/01/18 12:20:35;;;;;;;13.05;6.90;;;7.80;99.90;;;;;;5009674;28;20062;-75
2022/01/18 12:23:05;;;;;;;12.40;6.78;;;7.80;99.90;;;;;;5010447;28;20049;-76
2022/01/18 12:25:34;;;;;;;15.43;7.22;;;7.80;99.90;;;;;;5009266;28;20145;-74
2022/01/18 12:32:29;;;;;;;13.85;7.10;;;7.80;99.90;;;;;;5011002;28;20042;-73
2022/01/18 12:34:34;;;;;;;12.23;7.07;;;7.80;99.90;;;;;;5010452;28;20057;-74
2022/01/18 12:37:06;;;;;;;16.05;7.93;;;7.80;99.90;;;;;;5009464;28;20485;-73
2022/01/18 12:39:54;;;;;;;13.75;6.75;;;7.70;99.90;;;;;;5008732;28;20050;-74
2022/01/18 12:44:50;;;;;;;15.23;7.40;;;7.70;99.90;;;;;;4990211;28;20165;-73
2022/01/18 12:47:15;;;;;;;15.98;6.60;;;7.70;99.90;;;;;;5005298;28;20571;-72
2022/01/18 12:49:42;;;;;;;14.18;6.25;;;7.70;99.90;;;;;;5008596;28;20053;-74
2022/01/18 12:52:08;;;;;;;12.68;6.22;;;7.70;99.90;;;;;;5010270;28;20068;-76
2022/01/18 12:54:38;;;;;;;12.50;5.45;;;7.70;99.90;;;;;;5009307;28;20401;-76
2022/01/18 12:57:19;;;;;;;13.48;5.60;;;7.70;99.90;;;;;;5007989;28;20515;-75
2022/01/18 13:00:03;;;;;;;9.88;4.93;;;7.70;99.90;;;;;;5009182;28;20054;-74
2022/01/18 13:02:29;;;;;;;14.43;6.90;;;7.70;99.90;;;;;;5008217;28;20042;-75
2022/01/18 13:05:00;;;;;;;14.00;5.53;;;7.70;99.90;;;;;;5006909;28;20147;-75
2022/01/18 13:07:26;;;;;;;13.73;5.88;;;7.70;99.90;;;;;;5009325;28;20440;-75
2022/01/18 13:10:00;;;;;;;12.20;5.90;;;7.60;99.90;;;;;;5009150;28;20481;-74
2022/01/18 13:12:36;;;;;;;14.50;5.70;;;7.60;99.90;;;;;;5009950;28;20719;-75
2022/01/18 13:15:05;;;;;;;16.02;5.72;;;7.60;99.90;;;;;;5009046;28;20088;-74
2022/01/18 13:23:27;;;;;;;11.13;4.75;;;7.50;99.90;;;;;;5009609;28;20053;-74
2022/01/18 13:25:59;;;;;;;17.25;5.65;;;7.40;99.90;;;;;;5003470;28;20148;-74
2022/01/18 13:28:35;;;;;;;12.57;4.28;;;7.50;99.90;;;;;;5010558;28;20057;-74
2022/01/18 13:31:22;;;;;;;13.43;5.57;;;7.50;99.90;;;;;;4996652;28;20814;-74
2022/01/18 13:33:48;;;;;;;;;;;7.50;99.90;;;;;;5008806;28;20058;-74
2022/01/18 13:36:14;;;;;;;14.13;7.00;;;7.40;99.90;;;;;;5008482;28;20296;-72
2022/01/18 13:38:39;;;;;;;15.63;4.68;;;7.40;99.90;;;;;;5007165;28;20034;-73
2022/01/18 13:41:05;;;;;;;16.05;4.95;;;7.50;99.90;;;;;;5008784;28;20100;-75
2022/01/18 13:43:30;;;;;;;13.93;4.70;;;7.50;99.90;;;;;;5010127;28;20069;-74
2022/01/18 13:45:56;;;;;;;14.20;5.05;;;7.40;99.90;;;;;;5008231;28;20049;-76
2022/01/18 13:48:31;;;;;;;15.10;5.15;;;7.40;99.90;;;;;;5009336;28;20050;-74
2022/01/18 13:50:57;;;;;;;15.05;5.07;;;7.40;99.90;;;;;;5017955;28;20050;-74
2022/01/18 13:53:31;;;;;;;13.43;4.80;;;7.40;99.90;;;;;;5009273;28;20538;-74
2022/01/18 13:56:01;;;;;;;14.27;5.57;;;7.30;99.90;;;;;;5008218;28;20054;-74
2022/01/18 13:58:30;;;;;;;10.88;4.22;;;7.30;99.90;;;;;;5009834;28;20088;-74
2022/01/18 14:01:13;;;;;;;15.35;5.00;;;7.30;99.90;;;;;;5008513;28;20061;-74
2022/01/18 14:03:46;;;;;;;16.02;4.93;;;7.40;99.90;;;;;;5007711;28;20049;-74
2022/01/18 14:06:14;;;;;;;14.05;4.85;;;7.30;99.90;;;;;;5006858;28;20108;-74
2022/01/18 14:08:51;;;;;;;15.50;5.05;;;7.30;99.90;;;;;;5023057;28;20099;-73
2022/01/18 14:11:25;;;;;;;15.43;4.83;;;7.30;99.90;;;;;;5008098;28;20049;-74